createdAt,value
2023-07-18T00:01:26.304Z,11.90
2023-07-18T00:03:53.716Z,11.90
2023-07-18T00:06:21.164Z,11.90
2023-07-18T00:08:48.529Z,11.90
2023-07-18T00:11:15.951Z,11.80
2023-07-18T00:13:43.765Z,11.80
2023-07-18T00:16:11.085Z,11.70
2023-07-18T00:18:39.129Z,11.70
2023-07-18T00:21:07.028Z,11.70
2023-07-18T00:23:35.340Z,11.70
2023-07-18T00:26:02.869Z,11.70
2023-07-18T00:28:30.312Z,11.60
2023-07-18T00:30:58.049Z,11.60
2023-07-18T00:33:25.664Z,11.60
2023-07-18T00:35:53.009Z,11.60
2023-07-18T00:38:21.857Z,11.60
2023-07-18T00:40:50.556Z,11.60
2023-07-18T00:43:18.265Z,11.60
2023-07-18T00:45:49.047Z,11.60
2023-07-18T00:48:16.805Z,11.60
2023-07-18T00:50:44.288Z,11.60
2023-07-18T00:53:12.068Z,11.60
2023-07-18T00:55:40.223Z,11.60
2023-07-18T00:58:09.599Z,11.50
2023-07-18T01:00:36.980Z,11.50
2023-07-18T01:03:04.396Z,11.50
2023-07-18T01:05:32.120Z,11.50
2023-07-18T01:07:59.620Z,11.50
2023-07-18T01:10:28.182Z,11.50
2023-07-18T01:12:58.105Z,11.50
2023-07-18T01:15:27.794Z,11.50
2023-07-18T01:17:55.168Z,11.50
2023-07-18T01:20:28.849Z,11.40
2023-07-18T01:23:01.497Z,11.40
2023-07-18T01:25:29.527Z,11.30
2023-07-18T01:27:58.348Z,11.20
2023-07-18T01:30:27.425Z,11.10
2023-07-18T01:32:55.566Z,11.10
2023-07-18T01:35:26.521Z,11.10
2023-07-18T01:37:55.359Z,11.00
2023-07-18T01:40:23.973Z,11.00
2023-07-18T01:42:56.284Z,11.00
2023-07-18T01:45:25.647Z,11.00
2023-07-18T01:47:53.581Z,11.00
2023-07-18T01:50:21.225Z,11.00
2023-07-18T01:52:49.229Z,11.00
2023-07-18T01:55:17.413Z,11.00
2023-07-18T01:57:50.338Z,10.90
2023-07-18T02:00:21.418Z,10.90
2023-07-18T02:02:54.996Z,11.00
2023-07-18T02:05:25.070Z,10.90
2023-07-18T02:07:53.018Z,10.90
2023-07-18T02:10:22.343Z,10.90
2023-07-18T02:12:51.778Z,10.90
2023-07-18T02:15:19.738Z,10.90
2023-07-18T02:17:47.604Z,10.90
2023-07-18T02:20:16.347Z,10.80
2023-07-18T02:22:45.366Z,10.80
2023-07-18T02:25:13.517Z,10.80
2023-07-18T02:27:42.584Z,10.80
2023-07-18T02:30:14.306Z,10.70
2023-07-18T02:32:45.428Z,10.80
2023-07-18T02:35:20.044Z,10.80
2023-07-18T02:37:48.147Z,10.80
2023-07-18T02:40:19.297Z,10.90
2023-07-18T02:42:47.118Z,10.90
2023-07-18T02:45:15.187Z,10.90
2023-07-18T02:47:42.955Z,10.90
2023-07-18T02:50:10.721Z,10.80
2023-07-18T02:52:38.206Z,10.80
2023-07-18T02:55:06.042Z,10.80
2023-07-18T02:57:34.412Z,10.80
2023-07-18T03:00:01.974Z,10.70
2023-07-18T03:02:32.777Z,10.70
2023-07-18T03:05:00.211Z,10.70
2023-07-18T03:07:27.835Z,10.70
2023-07-18T03:09:55.346Z,10.70
2023-07-18T03:12:23.123Z,10.60
2023-07-18T03:14:50.525Z,10.60
2023-07-18T03:17:17.984Z,10.50
2023-07-18T03:19:45.335Z,10.50
2023-07-18T03:22:13.113Z,10.50
2023-07-18T03:24:40.653Z,10.50
2023-07-18T03:27:09.264Z,10.50
2023-07-18T03:29:36.688Z,10.50
2023-07-18T03:32:04.390Z,10.50
2023-07-18T03:34:31.796Z,10.50
2023-07-18T03:36:59.113Z,10.50
2023-07-18T03:39:27.036Z,10.50
2023-07-18T03:41:54.334Z,10.40
2023-07-18T03:44:21.847Z,10.50
2023-07-18T03:46:49.186Z,10.40
2023-07-18T03:49:16.581Z,10.40
2023-07-18T03:51:44.359Z,10.40
2023-07-18T03:54:12.322Z,10.40
2023-07-18T03:56:40.113Z,10.40
2023-07-18T03:59:07.608Z,10.40
2023-07-18T04:01:34.879Z,10.40
2023-07-18T04:04:02.406Z,10.60
2023-07-18T04:06:30.127Z,10.70
2023-07-18T04:08:57.534Z,10.70
2023-07-18T04:11:24.986Z,10.90
2023-07-18T04:13:52.349Z,11.30
2023-07-18T04:16:19.837Z,11.30
2023-07-18T04:18:47.300Z,11.40
2023-07-18T04:21:14.673Z,11.80
2023-07-18T04:23:41.975Z,12.10
2023-07-18T04:26:10.713Z,12.30
2023-07-18T04:28:38.638Z,12.70
2023-07-18T04:31:06.867Z,12.90
2023-07-18T04:33:39.456Z,13.20
2023-07-18T04:36:07.652Z,13.50
2023-07-18T04:38:39.432Z,13.70
2023-07-18T04:41:06.896Z,14.10
2023-07-18T04:43:34.716Z,14.40
2023-07-18T04:46:02.665Z,14.60
2023-07-18T04:48:30.167Z,14.90
2023-07-18T04:51:02.231Z,15.10
2023-07-18T04:53:31.999Z,15.40
2023-07-18T04:56:01.568Z,15.80
2023-07-18T04:58:29.548Z,16.10
2023-07-18T05:00:58.594Z,16.20
2023-07-18T05:03:27.047Z,16.50
2023-07-18T05:05:55.029Z,16.50
2023-07-18T05:08:22.786Z,16.70
2023-07-18T05:10:51.247Z,16.90
2023-07-18T05:13:18.951Z,17.00
2023-07-18T05:15:46.504Z,17.20
2023-07-18T05:18:14.112Z,17.20
2023-07-18T05:20:41.514Z,17.30
2023-07-18T05:23:09.339Z,17.60
2023-07-18T05:25:40.653Z,17.60
2023-07-18T05:28:08.689Z,17.80
2023-07-18T05:30:36.046Z,17.80
2023-07-18T05:33:03.643Z,18.30
2023-07-18T05:35:31.217Z,18.90
2023-07-18T05:37:58.642Z,18.70
2023-07-18T05:40:26.214Z,18.80
2023-07-18T05:42:53.658Z,19.10
2023-07-18T05:45:21.276Z,19.50
2023-07-18T05:47:48.784Z,19.80
2023-07-18T05:50:16.443Z,20.10
2023-07-18T05:52:43.923Z,19.90
2023-07-18T05:55:13.284Z,20.30
2023-07-18T05:57:41.153Z,19.60
2023-07-18T06:00:08.803Z,20.00
2023-07-18T06:02:36.268Z,20.00
2023-07-18T06:05:03.705Z,20.00
2023-07-18T06:07:31.161Z,19.60
2023-07-18T06:09:59.389Z,19.90
2023-07-18T06:12:27.450Z,19.70
2023-07-18T06:14:56.385Z,19.80
2023-07-18T06:17:23.948Z,19.60
2023-07-18T06:19:51.597Z,19.40
2023-07-18T06:22:19.717Z,19.60
2023-07-18T06:24:48.655Z,20.40
2023-07-18T06:27:16.244Z,20.70
2023-07-18T06:29:46.261Z,20.60
2023-07-18T06:32:13.968Z,20.70
2023-07-18T06:34:42.537Z,20.90
2023-07-18T06:37:11.368Z,21.50
2023-07-18T06:39:39.848Z,21.20
2023-07-18T06:42:11.186Z,21.70
2023-07-18T06:44:39.627Z,22.00
2023-07-18T06:47:07.341Z,22.40
2023-07-18T06:49:34.989Z,22.60
2023-07-18T06:52:02.479Z,23.10
2023-07-18T06:54:29.830Z,22.80
2023-07-18T06:56:57.490Z,23.00
2023-07-18T06:59:25.808Z,23.50
2023-07-18T07:01:53.678Z,22.90
2023-07-18T07:04:21.224Z,23.50
2023-07-18T07:06:48.914Z,23.90
2023-07-18T07:09:16.386Z,24.40
2023-07-18T07:11:44.926Z,24.60
2023-07-18T07:14:13.113Z,24.70
2023-07-18T07:16:41.016Z,25.20
2023-07-18T07:19:09.321Z,25.30
2023-07-18T07:21:36.745Z,25.00
2023-07-18T07:24:04.385Z,25.00
2023-07-18T07:26:31.894Z,25.60
2023-07-18T07:28:59.383Z,25.50
2023-07-18T07:31:26.900Z,24.90
2023-07-18T07:33:54.760Z,24.60
2023-07-18T07:36:22.654Z,24.70
2023-07-18T07:38:50.734Z,25.00
2023-07-18T07:41:18.470Z,24.80
2023-07-18T07:43:46.190Z,24.50
2023-07-18T07:46:13.718Z,24.40
2023-07-18T07:48:41.976Z,23.80
2023-07-18T07:51:09.572Z,23.70
2023-07-18T07:53:37.065Z,23.90
2023-07-18T07:56:04.619Z,24.00
2023-07-18T07:58:32.081Z,23.70
2023-07-18T08:00:59.604Z,23.70
2023-07-18T08:03:27.135Z,23.80
2023-07-18T08:05:54.869Z,23.70
2023-07-18T08:08:22.261Z,23.70
2023-07-18T08:10:49.593Z,23.70
2023-07-18T08:13:19.366Z,24.20
2023-07-18T08:15:46.960Z,24.50
2023-07-18T08:18:14.465Z,24.50
2023-07-18T08:20:42.170Z,23.70
2023-07-18T08:23:09.736Z,23.60
2023-07-18T08:25:37.207Z,23.50
2023-07-18T08:28:04.915Z,23.50
2023-07-18T08:30:32.284Z,23.30
2023-07-18T08:32:59.775Z,23.10
2023-07-18T08:35:27.489Z,23.10
2023-07-18T08:37:55.278Z,23.50
2023-07-18T08:40:22.731Z,23.80
2023-07-18T08:42:51.629Z,23.70
2023-07-18T08:45:20.872Z,23.70
2023-07-18T08:47:50.443Z,23.90
2023-07-18T08:50:18.302Z,24.00
2023-07-18T08:52:46.054Z,23.90
2023-07-18T08:55:13.683Z,23.60
2023-07-18T08:57:43.090Z,23.70
2023-07-18T09:00:12.977Z,24.20
2023-07-18T09:02:40.403Z,24.30
2023-07-18T09:05:08.515Z,24.40
2023-07-18T09:07:38.908Z,24.50
2023-07-18T09:10:06.916Z,24.60
2023-07-18T09:12:37.264Z,24.50
2023-07-18T09:15:05.252Z,24.50
2023-07-18T09:17:35.982Z,24.50
2023-07-18T09:20:09.026Z,24.50
2023-07-18T09:22:38.398Z,24.50
2023-07-18T09:25:06.293Z,24.40
2023-07-18T09:27:37.395Z,24.30
2023-07-18T09:30:05.795Z,23.90
2023-07-18T09:32:34.814Z,23.60
2023-07-18T09:35:03.018Z,23.70
2023-07-18T09:37:30.508Z,24.00
2023-07-18T09:39:57.945Z,24.00
2023-07-18T09:42:25.947Z,24.10
2023-07-18T09:44:54.193Z,24.50
2023-07-18T09:47:22.466Z,24.60
2023-07-18T09:49:50.860Z,24.20
2023-07-18T09:52:23.702Z,24.10
2023-07-18T09:54:54.336Z,24.30
2023-07-18T09:57:23.212Z,24.20
2023-07-18T09:59:51.459Z,24.00
2023-07-18T10:02:19.293Z,24.00
2023-07-18T10:04:47.284Z,24.30
2023-07-18T10:07:15.118Z,24.50
2023-07-18T10:09:43.133Z,24.50
2023-07-18T10:12:11.695Z,24.80
2023-07-18T10:14:44.909Z,24.80
2023-07-18T10:17:26.652Z,24.60
2023-07-18T10:19:54.289Z,24.90
2023-07-18T10:22:31.843Z,24.90
2023-07-18T10:25:22.419Z,25.10
2023-07-18T10:27:50.997Z,25.30
2023-07-18T10:30:20.956Z,25.10
2023-07-18T10:32:56.630Z,24.60
2023-07-18T10:35:29.234Z,24.00
2023-07-18T10:38:07.878Z,24.10
2023-07-18T10:40:40.692Z,24.20
2023-07-18T10:43:10.571Z,24.00
2023-07-18T10:45:45.103Z,23.70
2023-07-18T10:48:22.816Z,23.90
2023-07-18T10:50:50.552Z,23.70
2023-07-18T10:53:22.234Z,24.00
2023-07-18T10:55:50.378Z,23.90
2023-07-18T10:58:22.104Z,23.80
2023-07-18T11:00:51.268Z,23.90
2023-07-18T11:03:29.247Z,24.10
2023-07-18T11:05:56.641Z,24.30
2023-07-18T11:08:33.966Z,24.70
2023-07-18T11:11:04.749Z,25.10
2023-07-18T11:13:37.060Z,25.50
2023-07-18T11:16:14.708Z,25.80
2023-07-18T11:18:46.954Z,26.40
2023-07-18T11:21:18.126Z,26.40
2023-07-18T11:23:46.081Z,26.10
2023-07-18T11:26:19.482Z,26.00
2023-07-18T11:28:59.139Z,26.30
2023-07-18T11:34:01.357Z,25.70
2023-07-18T11:36:30.900Z,25.30
2023-07-18T11:39:05.460Z,25.30
2023-07-18T11:41:45.476Z,26.10
2023-07-18T11:44:13.337Z,26.20
2023-07-18T11:46:46.086Z,26.40
2023-07-18T11:49:14.342Z,26.70
2023-07-18T11:51:42.773Z,27.00
2023-07-18T11:54:10.525Z,26.00
2023-07-18T11:56:38.678Z,25.80
2023-07-18T11:59:07.166Z,25.70
2023-07-18T12:01:39.091Z,26.30
2023-07-18T12:04:16.703Z,26.50
2023-07-18T12:06:44.260Z,26.50
2023-07-18T12:09:12.452Z,26.20
2023-07-18T12:11:40.180Z,25.30
2023-07-18T12:14:10.258Z,24.60
2023-07-18T12:16:40.928Z,24.70
2023-07-18T12:19:08.466Z,24.90
2023-07-18T12:21:36.028Z,25.40
2023-07-18T12:24:05.632Z,25.60
2023-07-18T12:26:33.234Z,26.30
2023-07-18T12:29:01.563Z,27.50
2023-07-18T12:31:29.101Z,28.60
2023-07-18T12:33:56.732Z,27.80
2023-07-18T12:36:24.249Z,27.40
2023-07-18T12:38:51.637Z,27.40
2023-07-18T12:41:19.720Z,27.20
2023-07-18T12:43:47.415Z,27.00
2023-07-18T12:46:14.860Z,26.60
2023-07-18T12:51:12.397Z,25.50
2023-07-18T12:53:40.009Z,25.30
2023-07-18T12:56:07.460Z,25.70
2023-07-18T12:58:34.842Z,27.00
2023-07-18T13:01:02.306Z,28.80
2023-07-18T13:03:32.625Z,29.00
2023-07-18T13:06:01.449Z,29.20
2023-07-18T13:08:30.170Z,29.20
2023-07-18T13:10:57.745Z,29.50
2023-07-18T13:13:25.247Z,29.60
2023-07-18T13:15:52.761Z,30.10
2023-07-18T13:18:20.252Z,30.00
2023-07-18T13:20:47.776Z,30.70
2023-07-18T13:23:15.472Z,31.10
2023-07-18T13:25:42.799Z,31.40
2023-07-18T13:28:10.315Z,29.50
2023-07-18T13:30:38.321Z,28.10
2023-07-18T13:33:06.101Z,27.30
2023-07-18T13:35:33.888Z,26.80
2023-07-18T13:38:01.372Z,27.30
2023-07-18T13:40:29.074Z,27.60
2023-07-18T13:42:56.462Z,28.10
2023-07-18T13:45:24.399Z,28.40
2023-07-18T13:47:52.378Z,28.10
2023-07-18T13:50:31.446Z,27.80
2023-07-18T13:52:59.163Z,27.60
2023-07-18T13:55:26.554Z,27.40
2023-07-18T13:57:54.475Z,27.40
2023-07-18T14:00:22.157Z,27.30
2023-07-18T14:02:51.047Z,27.50
2023-07-18T14:05:18.642Z,27.50
2023-07-18T14:07:46.187Z,27.70
2023-07-18T14:10:13.660Z,27.60
2023-07-18T14:12:41.277Z,28.10
2023-07-18T14:15:09.238Z,28.40
2023-07-18T14:17:36.742Z,28.90
2023-07-18T14:20:06.391Z,29.30
2023-07-18T14:22:33.931Z,29.70
2023-07-18T14:25:02.875Z,29.70
2023-07-18T14:27:30.261Z,29.70
2023-07-18T14:29:58.226Z,29.10
2023-07-18T14:32:25.709Z,29.10
2023-07-18T14:34:53.311Z,28.70
2023-07-18T14:37:21.030Z,29.30
2023-07-18T14:39:59.811Z,29.50
2023-07-18T14:42:27.352Z,29.20
2023-07-18T14:44:54.789Z,29.30
2023-07-18T14:47:22.103Z,29.60
2023-07-18T14:49:49.465Z,29.10
2023-07-18T14:52:17.459Z,28.50
2023-07-18T14:54:45.134Z,28.80
2023-07-18T14:57:12.752Z,28.60
2023-07-18T14:59:40.922Z,29.00
2023-07-18T15:02:10.413Z,28.40
2023-07-18T15:04:37.955Z,29.00
2023-07-18T15:07:05.550Z,29.30
2023-07-18T15:09:33.058Z,29.20
2023-07-18T15:12:00.632Z,29.10
2023-07-18T15:14:28.827Z,28.70
2023-07-18T15:16:57.657Z,28.60
2023-07-18T15:19:25.128Z,28.30
2023-07-18T15:21:54.047Z,28.40
2023-07-18T15:24:22.282Z,28.50
2023-07-18T15:26:49.844Z,28.70
2023-07-18T15:29:17.224Z,29.00
2023-07-18T15:31:44.721Z,29.00
2023-07-18T15:34:12.125Z,28.90
2023-07-18T15:36:39.508Z,29.00
2023-07-18T15:39:08.087Z,29.10
2023-07-18T15:41:35.893Z,29.10
2023-07-18T15:44:03.853Z,28.60
2023-07-18T15:46:31.339Z,28.40
2023-07-18T15:48:58.782Z,27.80
2023-07-18T15:51:26.222Z,27.50
2023-07-18T15:53:53.630Z,27.50
2023-07-18T15:56:21.486Z,27.90
2023-07-18T15:58:50.971Z,27.90
2023-07-18T16:01:18.478Z,28.00
2023-07-18T16:03:46.155Z,28.30
2023-07-18T16:06:15.001Z,28.20
2023-07-18T16:08:42.650Z,28.40
2023-07-18T16:11:10.084Z,29.20
2023-07-18T16:13:37.372Z,29.40
2023-07-18T16:16:06.246Z,29.10
2023-07-18T16:18:33.556Z,29.10
2023-07-18T16:21:01.307Z,29.20
2023-07-18T16:23:28.753Z,29.30
2023-07-18T16:25:56.241Z,29.20
2023-07-18T16:28:23.614Z,28.80
2023-07-18T16:30:51.006Z,28.00
2023-07-18T16:33:18.686Z,27.60
2023-07-18T16:35:48.560Z,27.40
2023-07-18T16:38:15.791Z,27.40
2023-07-18T16:40:43.605Z,27.40
2023-07-18T16:43:11.138Z,27.10
2023-07-18T16:45:40.085Z,26.90
2023-07-18T16:48:07.770Z,26.80
2023-07-18T16:50:36.826Z,26.70
2023-07-18T16:53:04.973Z,26.90
2023-07-18T16:55:32.426Z,26.80
2023-07-18T16:57:59.927Z,26.80
2023-07-18T17:00:27.262Z,26.80
2023-07-18T17:02:54.790Z,26.60
2023-07-18T17:05:22.310Z,26.50
2023-07-18T17:07:49.831Z,26.30
2023-07-18T17:10:17.565Z,26.10
2023-07-18T17:12:45.594Z,26.10
2023-07-18T17:15:13.214Z,26.10
2023-07-18T17:17:41.241Z,25.90
2023-07-18T17:20:11.750Z,25.90
2023-07-18T17:22:40.991Z,25.90
2023-07-18T17:25:08.959Z,25.80
2023-07-18T17:27:36.364Z,25.90
2023-07-18T17:30:06.468Z,25.90
2023-07-18T17:32:34.140Z,25.80
2023-07-18T17:35:01.719Z,25.70
2023-07-18T17:37:29.304Z,25.70
2023-07-18T17:40:01.866Z,25.60
2023-07-18T17:42:29.773Z,25.40
2023-07-18T17:44:57.769Z,25.40
2023-07-18T17:47:25.517Z,25.50
2023-07-18T17:49:53.033Z,25.40
2023-07-18T17:52:20.446Z,25.40
2023-07-18T17:54:48.156Z,25.20
2023-07-18T17:57:15.650Z,25.10
2023-07-18T17:59:43.434Z,25.00
2023-07-18T18:02:10.907Z,25.00
2023-07-18T18:04:38.287Z,24.90
2023-07-18T18:07:06.089Z,24.80
2023-07-18T18:09:34.102Z,24.60
2023-07-18T18:12:01.563Z,24.50
2023-07-18T18:14:28.970Z,24.50
2023-07-18T18:16:56.419Z,24.30
2023-07-18T18:19:23.887Z,24.20
2023-07-18T18:21:51.237Z,24.00
2023-07-18T18:24:18.677Z,24.00
2023-07-18T18:26:46.269Z,23.90
2023-07-18T18:29:16.165Z,23.70
2023-07-18T18:31:43.682Z,23.60
2023-07-18T18:34:11.016Z,23.50
2023-07-18T18:36:39.331Z,23.30
2023-07-18T18:39:06.798Z,23.20
2023-07-18T18:41:34.181Z,23.20
2023-07-18T18:44:01.580Z,23.10
2023-07-18T18:46:29.072Z,23.00
2023-07-18T18:48:58.623Z,22.90
2023-07-18T18:51:28.903Z,22.80
2023-07-18T18:53:56.457Z,22.70
2023-07-18T18:56:24.195Z,22.60
2023-07-18T18:58:51.456Z,22.50
2023-07-18T19:01:18.987Z,22.40
2023-07-18T19:03:47.111Z,22.30
2023-07-18T19:06:14.396Z,22.20
2023-07-18T19:08:41.704Z,22.10
2023-07-18T19:11:09.071Z,21.90
2023-07-18T19:13:37.108Z,21.80
2023-07-18T19:16:04.658Z,21.70
2023-07-18T19:18:31.948Z,21.50
2023-07-18T19:20:59.584Z,21.40
2023-07-18T19:23:27.171Z,21.20
2023-07-18T19:25:54.360Z,21.10
2023-07-18T19:28:22.016Z,21.00
2023-07-18T19:30:49.478Z,20.90
2023-07-18T19:33:16.934Z,20.80
2023-07-18T19:35:44.469Z,20.80
2023-07-18T19:38:11.867Z,20.70
2023-07-18T19:40:39.408Z,20.60
2023-07-18T19:43:07.047Z,20.40
2023-07-18T19:45:34.495Z,20.40
2023-07-18T19:48:01.999Z,20.30
2023-07-18T19:50:29.425Z,20.20
2023-07-18T19:52:58.100Z,20.20
2023-07-18T19:55:25.786Z,20.10
2023-07-18T19:57:53.196Z,20.10
2023-07-18T20:00:20.498Z,20.00
2023-07-18T20:02:48.071Z,19.90
2023-07-18T20:05:15.447Z,19.80
2023-07-18T20:07:42.933Z,19.80
2023-07-18T20:10:10.712Z,19.70
2023-07-18T20:12:41.093Z,19.70
2023-07-18T20:15:09.924Z,19.60
2023-07-18T20:17:37.389Z,19.60
2023-07-18T20:20:05.719Z,19.50
2023-07-18T20:22:33.249Z,19.40
2023-07-18T20:25:01.009Z,19.30
2023-07-18T20:27:29.082Z,19.20
2023-07-18T20:29:57.273Z,19.20
2023-07-18T20:32:24.915Z,19.20
2023-07-18T20:34:52.579Z,19.20
2023-07-18T20:37:20.452Z,19.20
2023-07-18T20:39:48.022Z,19.10
2023-07-18T20:42:15.439Z,19.10
2023-07-18T20:44:45.505Z,19.10
2023-07-18T20:47:12.999Z,19.10
2023-07-18T20:49:40.572Z,19.00
2023-07-18T20:52:08.387Z,19.00
2023-07-18T20:54:39.732Z,19.00
2023-07-18T20:57:07.724Z,19.00
2023-07-18T20:59:35.150Z,19.00
2023-07-18T21:02:02.692Z,18.90
2023-07-18T21:04:31.653Z,18.90
2023-07-18T21:06:59.020Z,18.90
2023-07-18T21:09:26.511Z,18.80
2023-07-18T21:11:53.958Z,18.80
2023-07-18T21:14:21.480Z,18.70
2023-07-18T21:16:48.899Z,18.70
2023-07-18T21:19:16.506Z,18.70
2023-07-18T21:21:44.225Z,18.60
2023-07-18T21:24:11.685Z,18.60
2023-07-18T21:26:39.326Z,18.50
2023-07-18T21:29:06.949Z,18.40
2023-07-18T21:31:34.794Z,18.40
2023-07-18T21:34:02.533Z,18.30
2023-07-18T21:36:30.100Z,18.30
2023-07-18T21:38:57.696Z,18.30
2023-07-18T21:41:25.137Z,18.30
2023-07-18T21:43:52.800Z,18.30
2023-07-18T21:46:23.734Z,18.40
2023-07-18T21:48:51.098Z,18.30
2023-07-18T21:51:18.967Z,18.20
2023-07-18T21:53:46.864Z,18.10
2023-07-18T21:56:14.465Z,18.00
2023-07-18T21:58:42.098Z,17.90
2023-07-18T22:01:09.756Z,17.90
2023-07-18T22:03:37.367Z,17.90
2023-07-18T22:06:04.749Z,18.00
2023-07-18T22:08:32.551Z,18.00
2023-07-18T22:11:00.057Z,18.00
2023-07-18T22:13:30.092Z,18.00
2023-07-18T22:15:57.897Z,18.00
2023-07-18T22:18:27.636Z,18.00
2023-07-18T22:20:56.402Z,18.00
2023-07-18T22:23:23.777Z,18.00
2023-07-18T22:28:21.566Z,18.00
2023-07-18T22:30:49.044Z,17.90
2023-07-18T22:33:16.483Z,17.90
2023-07-18T22:35:43.968Z,17.80
2023-07-18T22:38:11.504Z,17.80
2023-07-18T22:40:38.719Z,17.80
2023-07-18T22:43:06.981Z,17.80
2023-07-18T22:45:34.215Z,17.80
2023-07-18T22:48:01.406Z,17.70
2023-07-18T22:50:28.691Z,17.70
2023-07-18T22:52:55.868Z,17.70
2023-07-18T22:55:23.116Z,17.60
2023-07-18T22:57:50.337Z,17.60
2023-07-18T23:00:17.782Z,17.60
2023-07-18T23:02:45.426Z,17.50
2023-07-18T23:05:13.003Z,17.50
2023-07-18T23:07:40.309Z,17.50
2023-07-18T23:10:08.124Z,17.40
2023-07-18T23:12:35.462Z,17.40
2023-07-18T23:15:02.618Z,17.40
2023-07-18T23:17:30.013Z,17.40
2023-07-18T23:19:57.257Z,17.40
2023-07-18T23:22:24.477Z,17.30
2023-07-18T23:24:51.674Z,17.30
2023-07-18T23:27:18.889Z,17.20
2023-07-18T23:29:46.033Z,17.10
2023-07-18T23:32:13.289Z,17.00
2023-07-18T23:34:40.538Z,16.80
2023-07-18T23:37:07.685Z,16.70
2023-07-18T23:39:35.046Z,16.70
2023-07-18T23:42:02.196Z,16.60
2023-07-18T23:44:29.343Z,16.60
2023-07-18T23:46:56.483Z,16.60
2023-07-18T23:49:23.637Z,16.50
2023-07-18T23:51:50.786Z,16.40
2023-07-18T23:54:17.912Z,16.40
2023-07-18T23:56:48.089Z,16.30
2023-07-18T23:59:15.253Z,16.30
